Time;durP1;ratioP1;P1;durP2;ratioP2;P2;SDS_P1;SDS_P2;PMS_P1;PMS_P2;Temp;Humidity;BMP_temperature;BMP_pressure;BME280_temperature;BME280_humidity;BME280_pressure;Samples;Min_cycle;Max_cycle;Signal;HPM_P1;HPM_P2
2021/05/07 00:01:23;;;;;;;10.05;6.32;;;4.30;99.90;;;;;;5025024;28;20026;-77
2021/05/07 00:03:48;;;;;;;10.30;8.90;;;4.30;99.90;;;;;;5022004;28;20085;-77
2021/05/07 00:06:14;;;;;;;9.48;6.75;;;4.30;99.90;;;;;;5022269;28;20117;-77
2021/05/07 00:08:42;;;;;;;10.05;6.13;;;4.20;99.90;;;;;;5004555;28;20030;-77
2021/05/07 00:11:20;;;;;;;10.27;6.63;;;4.20;99.90;;;;;;5033030;22;20462;-76
2021/05/07 00:13:48;;;;;;;11.60;8.15;;;4.30;99.90;;;;;;5004198;28;20070;-77
2021/05/07 00:16:15;;;;;;;12.35;7.63;;;4.40;99.90;;;;;;5006252;28;20031;-77
2021/05/07 00:18:44;;;;;;;9.57;7.45;;;4.40;99.90;;;;;;4989275;28;20093;-77
2021/05/07 00:21:09;;;;;;;13.48;8.75;;;4.50;99.90;;;;;;4989783;28;20030;-77
2021/05/07 00:23:36;;;;;;;12.27;8.65;;;4.60;99.90;;;;;;4988570;28;20092;-77
2021/05/07 00:26:02;;;;;;;15.88;9.07;;;4.60;99.90;;;;;;4988526;28;20030;-77
2021/05/07 00:28:29;;;;;;;10.55;6.85;;;4.60;99.90;;;;;;5006229;28;20034;-77
2021/05/07 00:30:55;;;;;;;9.88;6.75;;;4.60;99.90;;;;;;5006233;28;20041;-77
2021/05/07 00:33:20;;;;;;;9.40;7.03;;;4.60;99.90;;;;;;4988759;28;20042;-77
2021/05/07 00:35:49;;;;;;;12.63;7.93;;;4.60;99.90;;;;;;5005873;28;20030;-77
2021/05/07 00:38:16;;;;;;;11.82;7.35;;;4.40;99.90;;;;;;4988886;28;20034;-77
2021/05/07 00:40:43;;;;;;;7.82;5.97;;;4.40;99.90;;;;;;4988047;28;20203;-77
2021/05/07 00:43:09;;;;;;;10.15;6.45;;;4.30;99.90;;;;;;4972331;28;20065;-77
2021/05/07 00:45:35;;;;;;;8.80;6.13;;;4.20;99.90;;;;;;4972119;28;20030;-77
2021/05/07 00:48:10;;;;;;;9.63;6.20;;;4.20;99.90;;;;;;4988175;28;20056;-77
2021/05/07 00:50:37;;;;;;;10.38;5.78;;;4.10;99.90;;;;;;4988265;28;20066;-77
2021/05/07 00:53:04;;;;;;;9.30;5.18;;;4.10;99.90;;;;;;4971866;28;20035;-77
2021/05/07 00:55:32;;;;;;;7.43;5.28;;;4.00;99.90;;;;;;4988091;28;20031;-76
2021/05/07 00:57:59;;;;;;;8.65;5.40;;;4.00;99.90;;;;;;4975080;28;20026;-77
2021/05/07 01:00:29;;;;;;;8.23;4.70;;;3.90;99.90;;;;;;4975003;28;20031;-78
2021/05/07 01:02:55;;;;;;;7.43;5.00;;;3.90;99.90;;;;;;4974768;28;20098;-77
2021/05/07 01:05:22;;;;;;;12.52;5.45;;;3.80;99.90;;;;;;4974454;28;20037;-78
2021/05/07 01:07:51;;;;;;;8.00;4.25;;;3.70;99.90;;;;;;4974882;28;20101;-77
2021/05/07 01:10:18;;;;;;;6.82;4.32;;;3.70;99.90;;;;;;4974555;28;20058;-77
2021/05/07 01:12:45;;;;;;;10.90;6.40;;;3.70;99.90;;;;;;5000612;28;20046;-77
2021/05/07 01:15:23;;;;;;;8.70;6.03;;;3.80;99.90;;;;;;5007906;28;20050;-76
2021/05/07 01:17:54;;;;;;;8.90;4.90;;;3.70;99.90;;;;;;4994011;28;20032;-77
2021/05/07 01:20:25;;;;;;;9.70;5.63;;;3.60;99.90;;;;;;4993859;28;20029;-77
2021/05/07 01:22:54;;;;;;;8.27;4.40;;;3.60;99.90;;;;;;4993741;28;20179;-76
2021/05/07 01:25:22;;;;;;;11.70;6.53;;;3.60;99.90;;;;;;5027511;28;20026;-77
2021/05/07 01:27:50;;;;;;;9.23;6.22;;;3.60;99.90;;;;;;5009193;28;20026;-77
2021/05/07 01:30:27;;;;;;;9.23;6.28;;;3.50;99.90;;;;;;4993705;28;20033;-77
2021/05/07 01:32:53;;;;;;;8.90;5.78;;;3.50;99.90;;;;;;5023853;28;20042;-77
2021/05/07 01:35:21;;;;;;;6.10;4.05;;;3.40;99.90;;;;;;5008354;28;20023;-77
2021/05/07 01:37:50;;;;;;;11.05;6.38;;;3.40;99.90;;;;;;4993418;28;20030;-77
2021/05/07 01:40:27;;;;;;;10.43;5.28;;;3.40;99.90;;;;;;5009375;28;20029;-77
2021/05/07 01:42:54;;;;;;;12.32;7.68;;;3.40;99.90;;;;;;5007989;28;20034;-77
2021/05/07 01:45:24;;;;;;;15.25;9.18;;;3.40;99.90;;;;;;4993463;28;20021;-77
2021/05/07 01:47:50;;;;;;;14.20;8.77;;;3.40;99.90;;;;;;5009018;28;20060;-77
2021/05/07 01:50:20;;;;;;;12.65;8.35;;;3.40;99.90;;;;;;5009294;28;20021;-77
2021/05/07 01:52:47;;;;;;;15.00;9.15;;;3.30;99.90;;;;;;4993154;28;20501;-77
2021/05/07 01:55:19;;;;;;;13.00;7.22;;;3.30;99.90;;;;;;5010448;28;20074;-76
2021/05/07 01:57:45;;;;;;;15.85;8.57;;;3.40;99.90;;;;;;4993182;28;20036;-76
2021/05/07 02:00:19;;;;;;;13.48;8.88;;;3.30;99.90;;;;;;4993126;28;20026;-76
2021/05/07 02:02:48;;;;;;;14.05;7.53;;;3.30;99.90;;;;;;4993316;28;20038;-77
2021/05/07 02:08:17;;;;;;;;;;;3.30;99.90;;;;;;5005998;28;20344;-77
2021/05/07 02:10:44;;;;;;;12.32;7.97;;;3.30;99.90;;;;;;4987496;28;19914;-76
2021/05/07 02:13:11;;;;;;;18.42;9.68;;;3.30;99.90;;;;;;4973461;28;20177;-77
2021/05/07 02:15:40;;;;;;;16.23;9.17;;;3.30;99.90;;;;;;4988175;28;20023;-77
2021/05/07 02:18:08;;;;;;;15.10;9.15;;;3.30;99.90;;;;;;4988619;28;20031;-77
2021/05/07 02:20:38;;;;;;;12.30;7.90;;;3.30;99.90;;;;;;4991785;28;20058;-77
2021/05/07 02:23:04;;;;;;;12.10;7.47;;;3.20;99.90;;;;;;4986669;28;20041;-77
2021/05/07 02:25:30;;;;;;;14.75;8.10;;;3.20;99.90;;;;;;5006752;28;20058;-77
2021/05/07 02:27:58;;;;;;;14.55;7.40;;;3.20;99.90;;;;;;4984707;28;20394;-77
2021/05/07 02:30:30;;;;;;;12.40;8.35;;;3.20;99.90;;;;;;4973686;28;20026;-77
2021/05/07 02:32:57;;;;;;;9.75;7.38;;;3.10;99.90;;;;;;4973047;28;20042;-77
2021/05/07 02:35:23;;;;;;;10.68;6.63;;;3.10;99.90;;;;;;4972779;28;20029;-77
2021/05/07 02:37:51;;;;;;;9.52;6.90;;;3.10;99.90;;;;;;4988648;28;20038;-77
2021/05/07 02:40:17;;;;;;;8.55;6.07;;;3.00;99.90;;;;;;4988767;28;20022;-77
2021/05/07 02:42:42;;;;;;;11.18;6.90;;;3.00;99.90;;;;;;5009192;28;20046;-77
2021/05/07 02:45:09;;;;;;;11.18;6.38;;;3.00;99.90;;;;;;4988740;28;20089;-76
2021/05/07 02:47:37;;;;;;;8.50;6.07;;;2.90;99.90;;;;;;4986602;28;20070;-77
2021/05/07 02:50:05;;;;;;;9.15;5.93;;;2.90;99.90;;;;;;4972783;28;20022;-77
2021/05/07 02:52:31;;;;;;;11.20;6.70;;;2.90;99.90;;;;;;5006231;28;20060;-77
2021/05/07 02:54:56;;;;;;;9.82;6.03;;;2.80;99.90;;;;;;4987875;28;20113;-77
2021/05/07 02:57:23;;;;;;;10.15;5.75;;;2.80;99.90;;;;;;4987627;28;20018;-77
2021/05/07 02:59:48;;;;;;;7.45;5.55;;;2.80;99.90;;;;;;4987750;28;20055;-76
2021/05/07 03:02:14;;;;;;;11.77;5.57;;;2.80;99.90;;;;;;4987816;28;20066;-77
2021/05/07 03:04:39;;;;;;;8.57;5.75;;;2.80;99.90;;;;;;5006073;28;20121;-77
2021/05/07 03:07:05;;;;;;;7.50;5.22;;;2.80;99.90;;;;;;4987634;28;20140;-77
2021/05/07 03:09:31;;;;;;;9.88;5.50;;;2.90;99.90;;;;;;5006158;28;20022;-78
2021/05/07 03:11:57;;;;;;;9.80;5.57;;;3.00;99.90;;;;;;5005641;28;20442;-77
2021/05/07 03:14:24;;;;;;;8.20;5.32;;;3.00;99.90;;;;;;5005793;28;20455;-76
2021/05/07 03:16:50;;;;;;;10.48;5.72;;;3.00;99.90;;;;;;5008418;28;20042;-77
2021/05/07 03:19:15;;;;;;;9.30;5.85;;;3.10;99.90;;;;;;4987703;28;20026;-77
2021/05/07 03:21:41;;;;;;;11.15;5.55;;;3.10;99.90;;;;;;5005605;28;20025;-76
2021/05/07 03:24:09;;;;;;;9.77;5.10;;;3.20;99.90;;;;;;5005804;28;20057;-76
2021/05/07 03:26:35;;;;;;;8.75;5.07;;;3.20;99.90;;;;;;4986530;28;20019;-77
2021/05/07 03:29:01;;;;;;;8.20;5.30;;;3.20;99.90;;;;;;5005677;28;20030;-76
2021/05/07 03:31:26;;;;;;;7.85;4.95;;;3.30;99.90;;;;;;5005408;28;20072;-77
2021/05/07 03:33:52;;;;;;;9.07;5.50;;;3.40;99.90;;;;;;4972135;28;20062;-77
2021/05/07 03:36:19;;;;;;;7.40;5.07;;;3.40;99.90;;;;;;4986485;28;20026;-77
2021/05/07 03:38:45;;;;;;;7.18;4.43;;;3.40;99.90;;;;;;4987138;28;20027;-77
2021/05/07 03:41:10;;;;;;;7.15;4.60;;;3.40;99.90;;;;;;4986981;28;20050;-77
2021/05/07 03:43:36;;;;;;;7.82;5.10;;;3.40;99.90;;;;;;4987247;28;20029;-76
2021/05/07 03:46:03;;;;;;;10.90;5.57;;;3.50;99.90;;;;;;5007789;28;20034;-76
2021/05/07 03:48:28;;;;;;;8.40;5.50;;;3.50;99.90;;;;;;5002666;28;20026;-76
2021/05/07 03:50:54;;;;;;;7.13;5.03;;;3.50;99.90;;;;;;4971871;28;20463;-76
2021/05/07 03:53:22;;;;;;;8.93;6.05;;;3.60;99.90;;;;;;4971382;28;20045;-76
2021/05/07 03:55:48;;;;;;;12.10;6.82;;;3.60;99.90;;;;;;4982947;28;20039;-77
2021/05/07 03:58:14;;;;;;;10.20;6.93;;;3.70;99.90;;;;;;4971703;28;20057;-76
2021/05/07 04:00:40;;;;;;;9.32;6.55;;;3.70;99.90;;;;;;4985351;28;20031;-77
2021/05/07 04:03:07;;;;;;;12.38;6.32;;;3.70;99.90;;;;;;4985703;28;20031;-77
2021/05/07 04:05:33;;;;;;;10.25;7.28;;;3.70;99.90;;;;;;5004872;28;20026;-77
2021/05/07 04:08:15;;;;;;;10.38;6.95;;;3.70;99.90;;;;;;4986030;28;20155;-77
2021/05/07 04:10:45;;;;;;;11.27;6.15;;;3.70;99.90;;;;;;4983736;28;20030;-77
2021/05/07 04:15:56;;;;;;;10.23;6.90;;;3.80;99.90;;;;;;4985969;28;20102;-77
2021/05/07 04:18:22;;;;;;;13.73;7.70;;;3.80;99.90;;;;;;4970522;28;20033;-76
2021/05/07 04:20:48;;;;;;;12.65;7.97;;;3.90;99.90;;;;;;4981724;28;20118;-77
2021/05/07 04:23:13;;;;;;;13.07;6.35;;;3.90;99.90;;;;;;4989162;28;20279;-77
2021/05/07 04:25:39;;;;;;;13.35;8.23;;;4.00;99.90;;;;;;4982260;28;20023;-77
2021/05/07 04:28:05;;;;;;;9.20;6.25;;;4.00;99.90;;;;;;4987111;28;20034;-77
2021/05/07 04:30:31;;;;;;;9.23;6.47;;;4.00;99.90;;;;;;5006647;28;20027;-77
2021/05/07 04:32:56;;;;;;;12.45;7.70;;;4.00;99.90;;;;;;5008533;28;20034;-77
2021/05/07 04:35:22;;;;;;;18.65;9.00;;;4.10;99.90;;;;;;4990645;28;20096;-77
2021/05/07 04:37:48;;;;;;;15.70;10.35;;;4.10;99.90;;;;;;4990807;28;20034;-78
2021/05/07 04:40:14;;;;;;;14.98;9.73;;;4.10;99.90;;;;;;5008649;28;20198;-77
2021/05/07 04:42:40;;;;;;;19.05;12.13;;;4.10;99.90;;;;;;5008336;28;20026;-77
2021/05/07 04:45:07;;;;;;;16.98;10.10;;;4.10;99.90;;;;;;4988327;28;20100;-77
2021/05/07 04:47:33;;;;;;;13.50;8.88;;;3.90;99.90;;;;;;5011255;28;20029;-77
2021/05/07 04:49:58;;;;;;;11.25;7.07;;;3.80;99.90;;;;;;4988555;28;20038;-78
2021/05/07 04:52:24;;;;;;;10.73;5.82;;;3.70;99.90;;;;;;4979935;28;20041;-78
2021/05/07 04:54:50;;;;;;;9.93;5.18;;;3.60;99.90;;;;;;4988848;28;20110;-79
2021/05/07 04:57:15;;;;;;;7.28;4.13;;;3.60;99.90;;;;;;4974727;28;20554;-79
2021/05/07 04:59:41;;;;;;;6.50;3.33;;;3.60;99.90;;;;;;4989038;28;20042;-78
2021/05/07 05:02:07;;;;;;;4.72;2.38;;;3.50;99.90;;;;;;4988212;28;20046;-79
2021/05/07 05:04:32;;;;;;;4.05;1.88;;;3.50;99.90;;;;;;4973877;28;20026;-78
2021/05/07 05:06:58;;;;;;;3.72;1.30;;;3.60;99.90;;;;;;4974620;28;20058;-78
2021/05/07 05:09:23;;;;;;;3.53;1.08;;;3.60;99.90;;;;;;4988956;28;20023;-78
2021/05/07 05:11:49;;;;;;;2.25;0.68;;;3.50;99.90;;;;;;4986016;28;20471;-78
2021/05/07 05:14:15;;;;;;;2.33;0.80;;;3.50;99.90;;;;;;4973228;28;20058;-77
2021/05/07 05:16:41;;;;;;;2.15;0.57;;;3.50;99.90;;;;;;4975442;28;20037;-78
2021/05/07 05:19:06;;;;;;;1.77;0.60;;;3.60;99.90;;;;;;4985420;28;20030;-77
2021/05/07 05:21:32;;;;;;;1.73;0.60;;;3.70;99.90;;;;;;4988702;28;20115;-77
2021/05/07 05:23:57;;;;;;;2.17;0.80;;;3.70;99.90;;;;;;4989682;28;20534;-77
2021/05/07 05:26:23;;;;;;;2.83;0.60;;;3.80;99.90;;;;;;4989078;28;20034;-78
2021/05/07 05:28:49;;;;;;;4.05;0.60;;;3.90;99.90;;;;;;4991619;28;20027;-78
2021/05/07 05:31:14;;;;;;;1.77;0.60;;;3.90;99.90;;;;;;4988710;28;20046;-77
2021/05/07 05:33:40;;;;;;;3.90;0.50;;;4.00;99.90;;;;;;4988637;28;20050;-79
2021/05/07 05:36:06;;;;;;;2.25;0.70;;;4.00;99.90;;;;;;4991781;28;20045;-78
2021/05/07 05:38:32;;;;;;;1.50;0.47;;;3.90;99.90;;;;;;4992426;28;20065;-78
2021/05/07 05:40:57;;;;;;;3.58;0.50;;;4.00;99.90;;;;;;4989436;28;20030;-78
2021/05/07 05:43:23;;;;;;;2.67;0.57;;;4.10;99.90;;;;;;4986254;28;20068;-78
2021/05/07 05:45:50;;;;;;;2.05;0.50;;;4.10;99.90;;;;;;4986788;28;20422;-78
2021/05/07 05:48:17;;;;;;;1.88;0.50;;;4.10;99.90;;;;;;4986820;28;20026;-78
2021/05/07 05:50:46;;;;;;;3.83;0.60;;;4.00;99.90;;;;;;4987215;28;20078;-78
2021/05/07 05:53:12;;;;;;;2.20;0.50;;;4.10;99.90;;;;;;4972860;28;20410;-78
2021/05/07 05:55:38;;;;;;;1.27;0.45;;;4.00;99.90;;;;;;4987981;28;20037;-78
2021/05/07 05:58:05;;;;;;;2.13;0.90;;;3.90;99.90;;;;;;4988143;28;20058;-78
2021/05/07 06:00:31;;;;;;;2.30;0.60;;;3.90;99.90;;;;;;4972974;28;20022;-77
2021/05/07 06:02:57;;;;;;;5.90;1.20;;;3.80;99.90;;;;;;4988048;28;20087;-77
2021/05/07 06:05:23;;;;;;;2.55;0.50;;;3.80;99.90;;;;;;4993368;28;20081;-77
2021/05/07 06:07:49;;;;;;;2.03;0.50;;;3.70;99.90;;;;;;4979983;28;20109;-77
2021/05/07 06:10:17;;;;;;;1.95;0.63;;;3.70;99.90;;;;;;5003378;28;20499;-77
2021/05/07 06:12:46;;;;;;;3.88;0.80;;;3.60;99.90;;;;;;4993649;28;20030;-77
2021/05/07 06:15:13;;;;;;;4.05;0.77;;;3.70;99.90;;;;;;4975297;28;20052;-77
2021/05/07 06:17:38;;;;;;;2.97;0.70;;;3.70;99.90;;;;;;4973067;28;20119;-77
2021/05/07 06:20:06;;;;;;;1.75;0.50;;;3.80;99.90;;;;;;4977850;28;20022;-77
2021/05/07 06:22:33;;;;;;;1.80;0.70;;;3.90;99.90;;;;;;4978468;28;20038;-77
2021/05/07 06:25:00;;;;;;;1.90;0.60;;;4.00;99.90;;;;;;4991476;28;20033;-77
2021/05/07 06:27:25;;;;;;;3.05;0.60;;;4.20;99.90;;;;;;4996236;28;20061;-77
2021/05/07 06:29:51;;;;;;;2.35;0.70;;;4.50;99.90;;;;;;4983984;28;20038;-77
2021/05/07 06:32:18;;;;;;;1.77;0.57;;;4.50;99.90;;;;;;4978110;28;20446;-77
2021/05/07 06:34:43;;;;;;;3.70;0.80;;;4.80;99.90;;;;;;4980572;28;20030;-77
2021/05/07 06:37:09;;;;;;;2.72;0.70;;;4.70;99.90;;;;;;4993607;28;20046;-77
2021/05/07 06:39:35;;;;;;;2.08;0.63;;;4.80;99.90;;;;;;4990100;28;20430;-77
2021/05/07 06:42:01;;;;;;;2.40;0.98;;;4.90;99.90;;;;;;4978628;28;20034;-77
2021/05/07 06:44:28;;;;;;;1.70;0.80;;;4.90;99.90;;;;;;4991986;28;20206;-77
2021/05/07 06:46:54;;;;;;;2.92;0.70;;;5.20;99.90;;;;;;4970910;28;20027;-77
2021/05/07 06:49:21;;;;;;;2.22;0.80;;;5.30;99.90;;;;;;4992539;28;20521;-77
2021/05/07 06:51:47;;;;;;;2.53;1.00;;;5.10;99.90;;;;;;4993978;28;20674;-77
2021/05/07 06:54:13;;;;;;;1.83;0.70;;;5.40;99.90;;;;;;4977493;28;20022;-76
2021/05/07 06:56:39;;;;;;;3.83;0.98;;;5.40;99.90;;;;;;5010679;28;20031;-77
2021/05/07 06:59:08;;;;;;;2.35;0.90;;;5.50;99.90;;;;;;4988101;28;20022;-77
2021/05/07 07:01:37;;;;;;;2.53;0.90;;;5.70;99.90;;;;;;4982407;28;20066;-77
2021/05/07 07:04:04;;;;;;;3.42;0.93;;;5.90;99.90;;;;;;4988346;28;20037;-77
2021/05/07 07:06:30;;;;;;;2.67;0.75;;;6.00;99.90;;;;;;4989544;28;20046;-78
2021/05/07 07:08:55;;;;;;;3.17;0.73;;;5.90;99.90;;;;;;4993559;28;20040;-77
2021/05/07 07:11:21;;;;;;;2.85;0.60;;;6.00;99.90;;;;;;4992777;28;20023;-77
2021/05/07 07:13:47;;;;;;;2.28;0.88;;;6.00;99.90;;;;;;4987535;28;20049;-77
2021/05/07 07:16:16;;;;;;;2.65;0.70;;;6.40;99.90;;;;;;4978923;28;20030;-77
2021/05/07 07:18:42;;;;;;;1.48;0.60;;;6.20;99.90;;;;;;4992098;28;20089;-77
2021/05/07 07:21:09;;;;;;;1.40;0.50;;;6.10;99.90;;;;;;4991563;28;20023;-77
2021/05/07 07:23:36;;;;;;;2.05;0.90;;;6.30;99.90;;;;;;4970705;28;20077;-78
2021/05/07 07:26:02;;;;;;;2.05;0.55;;;6.40;99.90;;;;;;4973926;28;20441;-78
2021/05/07 07:28:27;;;;;;;2.30;0.60;;;6.60;99.90;;;;;;5004982;28;20049;-78
2021/05/07 07:30:53;;;;;;;2.33;0.50;;;6.70;99.90;;;;;;5007576;28;20033;-78
2021/05/07 07:33:18;;;;;;;1.52;0.50;;;6.90;99.90;;;;;;4987426;28;20039;-77
2021/05/07 07:35:44;;;;;;;2.45;0.70;;;7.30;99.90;;;;;;4971084;28;20097;-77
2021/05/07 07:38:10;;;;;;;2.08;0.60;;;7.20;99.90;;;;;;5004719;28;20026;-78
2021/05/07 07:40:35;;;;;;;2.55;0.82;;;7.20;99.90;;;;;;5005264;28;20026;-77
2021/05/07 07:43:01;;;;;;;2.92;0.82;;;6.80;99.90;;;;;;5006845;28;20030;-78
2021/05/07 07:45:27;;;;;;;3.20;0.90;;;7.10;99.90;;;;;;4984616;28;20031;-78
2021/05/07 07:47:52;;;;;;;2.42;0.80;;;7.10;99.90;;;;;;4985025;28;20043;-78
2021/05/07 07:50:18;;;;;;;4.35;1.05;;;7.20;99.90;;;;;;5004618;28;20038;-77
2021/05/07 07:52:44;;;;;;;2.95;0.80;;;7.20;99.90;;;;;;4985022;28;20031;-78
2021/05/07 07:55:10;;;;;;;2.58;0.90;;;7.40;99.90;;;;;;4971129;28;20030;-78
2021/05/07 07:57:35;;;;;;;3.90;1.08;;;7.30;99.90;;;;;;5004599;28;20077;-79
2021/05/07 08:00:01;;;;;;;2.58;0.88;;;7.30;99.90;;;;;;4985577;28;20030;-78
2021/05/07 08:02:37;;;;;;;2.72;1.15;;;8.10;99.90;;;;;;4986687;28;20035;-78
2021/05/07 08:05:23;;;;;;;2.17;1.00;;;8.00;99.90;;;;;;4987131;28;20030;-78
2021/05/07 08:07:49;;;;;;;2.13;1.15;;;7.80;99.90;;;;;;4899154;29;20059;-77
2021/05/07 08:10:16;;;;;;;2.15;0.80;;;7.90;99.90;;;;;;4916139;29;20048;-77
2021/05/07 08:12:42;;;;;;;2.03;1.00;;;8.30;99.90;;;;;;4913068;29;20048;-77
2021/05/07 08:15:09;;;;;;;2.47;1.08;;;8.50;99.90;;;;;;4913459;29;20051;-77
2021/05/07 08:17:34;;;;;;;2.47;0.90;;;8.00;99.90;;;;;;4913016;29;20589;-76
2021/05/07 08:20:00;;;;;;;2.88;1.00;;;7.80;99.90;;;;;;4929218;29;20125;-77
2021/05/07 08:22:26;;;;;;;3.50;1.33;;;8.30;99.90;;;;;;4928850;29;20035;-77
2021/05/07 08:24:52;;;;;;;4.43;1.20;;;8.50;99.90;;;;;;4929034;29;20082;-77
2021/05/07 08:27:20;;;;;;;4.93;1.10;;;8.30;99.90;;;;;;4897453;29;20032;-77
2021/05/07 08:29:46;;;;;;;2.35;0.82;;;8.80;99.90;;;;;;4913345;29;20521;-77
2021/05/07 08:32:12;;;;;;;2.47;0.90;;;8.30;99.90;;;;;;4912842;29;20111;-77
2021/05/07 08:34:41;;;;;;;2.38;0.93;;;8.10;99.90;;;;;;4913038;29;20055;-76
2021/05/07 08:37:11;;;;;;;4.70;1.02;;;8.90;99.90;;;;;;4912887;29;20036;-77
2021/05/07 08:39:37;;;;;;;2.80;1.10;;;8.80;99.90;;;;;;4913103;29;20043;-77
2021/05/07 08:42:08;;;;;;;3.25;1.10;;;8.80;99.90;;;;;;4912851;29;20099;-77
2021/05/07 08:44:34;;;;;;;2.75;1.10;;;8.40;99.90;;;;;;4956107;28;20058;-77
2021/05/07 08:47:01;;;;;;;2.75;1.20;;;8.20;99.90;;;;;;4977235;28;20030;-77
2021/05/07 08:49:27;;;;;;;3.35;1.40;;;8.20;99.90;;;;;;4992125;28;20430;-77
2021/05/07 08:51:53;;;;;;;2.78;0.88;;;8.50;99.90;;;;;;4973914;28;20129;-77
2021/05/07 08:54:19;;;;;;;3.60;1.25;;;8.70;99.90;;;;;;4974476;28;20030;-78
2021/05/07 08:56:44;;;;;;;4.40;1.08;;;8.90;99.90;;;;;;4990125;28;20042;-76
2021/05/07 08:59:11;;;;;;;2.70;1.38;;;9.40;99.90;;;;;;4987741;28;20479;-77
2021/05/07 09:01:49;;;;;;;2.75;1.02;;;9.40;99.90;;;;;;5003783;28;20030;-77
2021/05/07 09:04:18;;;;;;;3.58;1.20;;;9.30;99.90;;;;;;4986948;28;20479;-77
2021/05/07 09:06:53;;;;;;;3.47;0.98;;;8.90;99.90;;;;;;4973338;28;20042;-77
2021/05/07 09:09:25;;;;;;;1.98;0.90;;;8.60;99.90;;;;;;4974034;28;20090;-77
2021/05/07 09:11:50;;;;;;;3.17;0.77;;;8.70;99.90;;;;;;4988458;28;20035;-77
2021/05/07 09:14:16;;;;;;;2.65;1.10;;;9.40;99.90;;;;;;4989016;28;20054;-77
2021/05/07 09:16:55;;;;;;;2.47;0.80;;;10.00;99.90;;;;;;5006562;28;20018;-77
2021/05/07 09:19:33;;;;;;;1.85;0.65;;;8.90;99.90;;;;;;5007374;28;20455;-77
2021/05/07 09:21:59;;;;;;;1.80;0.70;;;8.70;99.90;;;;;;4973451;28;20095;-76
2021/05/07 09:24:33;;;;;;;1.98;0.75;;;8.90;99.90;;;;;;4987857;28;20031;-78
2021/05/07 09:26:59;;;;;;;3.42;0.80;;;8.70;99.90;;;;;;5007336;28;20030;-77
2021/05/07 09:29:29;;;;;;;3.15;0.70;;;8.70;99.90;;;;;;4988413;28;20400;-77
2021/05/07 09:31:55;;;;;;;2.20;0.90;;;8.50;99.90;;;;;;4973296;28;20116;-76
2021/05/07 09:34:22;;;;;;;3.25;0.77;;;9.00;99.90;;;;;;4991826;28;20137;-77
2021/05/07 09:36:49;;;;;;;1.52;0.47;;;9.50;99.90;;;;;;4973256;28;20117;-77
2021/05/07 09:39:22;;;;;;;2.42;0.60;;;10.20;99.90;;;;;;4989450;28;20030;-77
2021/05/07 09:41:50;;;;;;;2.90;0.50;;;10.40;99.90;;;;;;4988048;28;20106;-77
2021/05/07 09:44:26;;;;;;;1.40;0.52;;;9.40;99.90;;;;;;4976182;28;20125;-77
2021/05/07 09:46:54;;;;;;;1.45;0.50;;;9.10;99.90;;;;;;4973370;28;20026;-77
2021/05/07 09:49:30;;;;;;;1.63;0.47;;;9.90;99.90;;;;;;4987333;28;20023;-77
2021/05/07 09:51:58;;;;;;;1.13;0.40;;;9.60;99.90;;;;;;5004019;28;20186;-77
2021/05/07 09:54:24;;;;;;;1.67;0.40;;;9.40;99.90;;;;;;4986685;28;20054;-77
2021/05/07 09:56:50;;;;;;;4.65;0.60;;;9.30;99.90;;;;;;4988912;28;20279;-77
2021/05/07 09:59:18;;;;;;;1.50;0.70;;;9.50;99.90;;;;;;4989338;28;20030;-76
2021/05/07 10:01:46;;;;;;;2.78;0.50;;;9.80;99.90;;;;;;4987229;28;20034;-77
2021/05/07 10:04:14;;;;;;;2.47;0.60;;;10.30;99.90;;;;;;4987820;28;20035;-77
2021/05/07 10:06:40;;;;;;;2.17;0.63;;;10.70;99.90;;;;;;4987312;28;20042;-77
2021/05/07 10:09:07;;;;;;;2.00;0.60;;;10.80;99.90;;;;;;5003254;28;20053;-77
2021/05/07 10:11:42;;;;;;;2.20;0.68;;;10.60;99.90;;;;;;5006192;28;20086;-77
2021/05/07 10:14:13;;;;;;;1.27;0.50;;;10.80;99.90;;;;;;5009135;28;20105;-77
2021/05/07 10:16:40;;;;;;;2.55;0.50;;;11.20;99.90;;;;;;4987452;28;20058;-76
2021/05/07 10:19:13;;;;;;;1.95;0.57;;;11.60;99.90;;;;;;4972675;28;20122;-77
2021/05/07 10:21:40;;;;;;;2.50;0.55;;;11.30;99.90;;;;;;4975336;28;20054;-77
2021/05/07 10:24:11;;;;;;;3.25;0.50;;;11.50;99.90;;;;;;4977879;28;20386;-77
2021/05/07 10:26:39;;;;;;;1.75;0.50;;;10.90;99.90;;;;;;4972631;28;20570;-77
2021/05/07 10:29:22;;;;;;;2.13;0.50;;;11.40;99.90;;;;;;4987870;28;20019;-78
2021/05/07 10:31:50;;;;;;;3.95;0.40;;;11.40;99.90;;;;;;4984670;28;20089;-77
2021/05/07 10:34:16;;;;;;;2.20;0.50;;;11.30;99.90;;;;;;4988402;28;20039;-77
2021/05/07 10:36:43;;;;;;;3.08;0.63;;;11.80;99.90;;;;;;4972396;28;20042;-77
2021/05/07 10:39:19;;;;;;;1.83;0.40;;;11.90;99.90;;;;;;5005838;28;20026;-77
2021/05/07 10:41:46;;;;;;;3.25;0.60;;;11.80;99.90;;;;;;5006096;28;20023;-77
2021/05/07 10:44:13;;;;;;;2.20;0.63;;;11.60;99.90;;;;;;4972284;28;20038;-77
2021/05/07 10:46:41;;;;;;;2.28;0.50;;;11.80;99.90;;;;;;4987527;28;20028;-77
2021/05/07 10:49:07;;;;;;;2.33;0.50;;;12.40;99.90;;;;;;4971391;28;20117;-77
2021/05/07 10:51:32;;;;;;;2.75;0.95;;;12.40;99.90;;;;;;5006284;28;20544;-77
2021/05/07 10:54:13;;;;;;;1.63;0.60;;;12.10;99.90;;;;;;5006012;28;20094;-77
2021/05/07 10:56:42;;;;;;;1.33;0.52;;;12.60;99.90;;;;;;4986807;28;20023;-77
2021/05/07 10:59:19;;;;;;;1.83;0.60;;;13.20;99.90;;;;;;4987247;28;20041;-77
2021/05/07 11:02:02;;;;;;;4.15;0.85;;;11.70;99.90;;;;;;5003180;28;20065;-77
2021/05/07 11:05:08;;;;;;;2.20;0.63;;;11.30;99.90;;;;;;5005453;28;20022;-77
2021/05/07 11:07:34;;;;;;;1.50;0.60;;;12.50;99.90;;;;;;4925038;29;20043;-77
2021/05/07 11:10:11;;;;;;;1.45;0.47;;;12.10;99.90;;;;;;4913296;29;20055;-76
2021/05/07 11:12:42;;;;;;;2.20;0.45;;;12.20;99.90;;;;;;4915282;29;20076;-78
2021/05/07 11:15:17;;;;;;;1.95;0.50;;;12.00;99.90;;;;;;4931453;29;20063;-78
2021/05/07 11:17:43;;;;;;;2.55;0.50;;;12.70;99.90;;;;;;4945065;29;20114;-77
2021/05/07 11:20:10;;;;;;;1.45;0.50;;;12.20;99.90;;;;;;4913236;29;20099;-77
2021/05/07 11:22:39;;;;;;;3.50;0.70;;;12.10;99.90;;;;;;4942212;29;20028;-77
2021/05/07 11:25:06;;;;;;;2.53;0.47;;;12.60;99.90;;;;;;4943450;29;20035;-77
2021/05/07 11:27:32;;;;;;;2.20;0.40;;;13.10;99.90;;;;;;4929028;29;20036;-78
2021/05/07 11:30:00;;;;;;;2.10;0.40;;;12.50;99.90;;;;;;4876828;29;20088;-78
2021/05/07 11:32:26;;;;;;;1.30;0.30;;;11.80;99.90;;;;;;4928360;29;20109;-77
2021/05/07 11:34:56;;;;;;;2.08;0.50;;;11.40;99.90;;;;;;4950981;29;20122;-77
2021/05/07 11:37:23;;;;;;;3.33;0.60;;;11.10;99.90;;;;;;4948722;29;20036;-77
2021/05/07 11:39:55;;;;;;;2.08;0.65;;;10.90;99.90;;;;;;4948323;29;20046;-77
2021/05/07 11:42:40;;;;;;;2.30;0.95;;;10.80;99.90;;;;;;4925561;29;20024;-77
2021/05/07 11:45:10;;;;;;;4.13;0.73;;;10.50;99.90;;;;;;4975931;28;20055;-77
2021/05/07 11:47:37;;;;;;;1.93;0.57;;;10.50;99.90;;;;;;4988459;28;20033;-77
2021/05/07 11:50:05;;;;;;;2.08;0.57;;;10.80;99.90;;;;;;4988110;28;20293;-77
2021/05/07 11:52:41;;;;;;;2.53;0.60;;;11.50;99.90;;;;;;5012087;28;20034;-77
2021/05/07 11:55:28;;;;;;;1.20;0.40;;;11.90;99.90;;;;;;4975995;28;20057;-78
2021/05/07 11:57:59;;;;;;;2.15;0.73;;;12.30;99.90;;;;;;5008885;28;20038;-78
2021/05/07 12:00:24;;;;;;;2.60;0.60;;;12.40;99.90;;;;;;4971267;28;20037;-77
2021/05/07 12:03:05;;;;;;;2.13;0.50;;;12.40;99.90;;;;;;4995262;28;20033;-77
2021/05/07 12:05:53;;;;;;;2.33;0.60;;;12.80;99.90;;;;;;4967329;28;20019;-78
2021/05/07 12:08:27;;;;;;;3.22;0.73;;;12.50;99.90;;;;;;4993705;28;20546;-77
2021/05/07 12:10:52;;;;;;;2.35;0.75;;;11.70;99.90;;;;;;5006986;28;20064;-77
2021/05/07 12:13:24;;;;;;;2.03;0.80;;;11.70;99.90;;;;;;4994040;28;20038;-78
2021/05/07 12:15:52;;;;;;;4.10;0.70;;;11.60;99.90;;;;;;4965639;28;20035;-77
2021/05/07 12:18:20;;;;;;;2.83;0.93;;;11.50;99.90;;;;;;4994822;28;20131;-76
2021/05/07 12:20:49;;;;;;;1.73;0.52;;;11.40;99.90;;;;;;4990624;28;20040;-77
2021/05/07 12:23:15;;;;;;;2.40;0.57;;;11.30;99.90;;;;;;4993546;28;20581;-77
2021/05/07 12:25:45;;;;;;;1.67;0.65;;;11.00;99.90;;;;;;4990247;28;20099;-77
2021/05/07 12:28:15;;;;;;;3.47;1.00;;;11.60;99.90;;;;;;5010644;28;20022;-77
2021/05/07 12:30:45;;;;;;;3.20;0.50;;;12.40;99.90;;;;;;4919866;28;20629;-77
2021/05/07 12:33:18;;;;;;;1.33;0.50;;;13.00;99.90;;;;;;4991591;28;20046;-77
2021/05/07 12:35:47;;;;;;;1.88;0.70;;;12.50;99.90;;;;;;4978172;28;20477;-78
2021/05/07 12:38:40;;;;;;;2.63;0.77;;;11.70;99.90;;;;;;4990185;28;20038;-78
2021/05/07 12:41:11;;;;;;;2.90;0.77;;;11.30;99.90;;;;;;4986714;28;20031;-80
2021/05/07 12:43:39;;;;;;;2.17;0.60;;;11.10;99.90;;;;;;4975887;28;20027;-78
2021/05/07 12:46:05;;;;;;;1.02;0.52;;;11.00;99.90;;;;;;4976400;28;20056;-78
2021/05/07 12:48:31;;;;;;;2.33;0.70;;;11.10;99.90;;;;;;4988727;28;20042;-78
2021/05/07 12:51:01;;;;;;;2.78;0.85;;;11.50;99.90;;;;;;4973219;28;20027;-77
2021/05/07 12:53:27;;;;;;;2.05;0.70;;;12.70;99.90;;;;;;4977215;28;20524;-77
2021/05/07 12:55:52;;;;;;;2.47;0.60;;;13.20;99.90;;;;;;4997928;28;20086;-77
2021/05/07 12:58:18;;;;;;;1.52;0.45;;;12.40;99.90;;;;;;5012261;28;20038;-78
2021/05/07 13:00:45;;;;;;;1.50;0.30;;;11.60;99.90;;;;;;4978770;28;20431;-78
2021/05/07 13:03:12;;;;;;;1.52;0.38;;;11.30;99.90;;;;;;5013553;28;20061;-78